Time;durP1;ratioP1;P1;durP2;ratioP2;P2;SDS_P1;SDS_P2;PMS_P1;PMS_P2;Temp;Humidity;BMP_temperature;BMP_pressure;BME280_temperature;BME280_humidity;BME280_pressure;Samples;Min_cycle;Max_cycle;Signal;HPM_P1;HPM_P2
2022/04/02 00:00:08;;;;;;;0.10;0.10;;;;;;;;;;4934783;28;20287;-71
2022/04/02 00:02:35;;;;;;;0.00;0.00;;;;;;;;;;4944700;29;20210;-70
2022/04/02 00:05:03;;;;;;;0.10;0.10;;;;;;;;;;4945355;28;20210;-71
2022/04/02 00:07:30;;;;;;;0.20;0.20;;;;;;;;;;4934583;28;20239;-71
2022/04/02 00:09:58;;;;;;;0.00;0.00;;;;;;;;;;4934249;29;20262;-70
2022/04/02 00:12:26;;;;;;;0.37;0.37;;;;;;;;;;4948191;28;20202;-72
2022/04/02 00:14:54;;;;;;;0.17;0.17;;;;;;;;;;4944931;28;20199;-70
2022/04/02 00:17:21;;;;;;;0.10;0.10;;;;;;;;;;4934256;28;20294;-70
2022/04/02 00:19:49;;;;;;;0.00;0.00;;;;;;;;;;4945914;28;20306;-70
2022/04/02 00:22:17;;;;;;;0.00;0.00;;;;;;;;;;4936402;28;20199;-71
2022/04/02 00:24:46;;;;;;;0.20;0.20;;;;;;;;;;4934264;29;20204;-70
2022/04/02 00:27:13;;;;;;;0.00;0.00;;;;;;;;;;4944990;28;20669;-70
2022/04/02 00:29:42;;;;;;;0.57;0.40;;;;;;;;;;4946559;28;20234;-71
2022/04/02 00:32:10;;;;;;;1.10;0.70;;;;;;;;;;4945416;28;20210;-71
2022/04/02 00:34:37;;;;;;;0.10;0.10;;;;;;;;;;4935652;28;20204;-70
2022/04/02 00:37:05;;;;;;;0.73;0.73;;;;;;;;;;4933400;28;20668;-70
2022/04/02 00:39:32;;;;;;;0.00;0.00;;;;;;;;;;4933588;28;20211;-69
2022/04/02 00:42:00;;;;;;;0.00;0.00;;;;;;;;;;4941696;28;20670;-69
2022/04/02 00:44:27;;;;;;;0.00;0.00;;;;;;;;;;4933825;29;20208;-70
2022/04/02 00:46:56;;;;;;;0.00;0.00;;;;;;;;;;4944889;28;20253;-70
2022/04/02 00:49:24;;;;;;;0.63;0.47;;;;;;;;;;4932934;29;20232;-70
2022/04/02 00:51:53;;;;;;;0.00;0.00;;;;;;;;;;4944322;28;20210;-70
2022/04/02 00:54:21;;;;;;;0.40;0.40;;;;;;;;;;4950205;28;20668;-70
2022/04/02 00:56:49;;;;;;;0.00;0.00;;;;;;;;;;4939956;28;20282;-70
2022/04/02 00:59:16;;;;;;;0.50;0.37;;;;;;;;;;4936941;28;20690;-71
2022/04/02 01:01:45;;;;;;;0.00;0.00;;;;;;;;;;4945593;28;20203;-71
2022/04/02 01:04:14;;;;;;;1.03;0.33;;;;;;;;;;4953580;28;20214;-71
2022/04/02 01:06:42;;;;;;;2.53;0.60;;;;;;;;;;4948647;28;20236;-72
2022/04/02 01:09:10;;;;;;;0.73;0.40;;;;;;;;;;4949891;28;20327;-71
2022/04/02 01:11:38;;;;;;;0.73;0.73;;;;;;;;;;4943379;28;20202;-71
2022/04/02 01:14:07;;;;;;;0.40;0.40;;;;;;;;;;4957597;28;20205;-71
2022/04/02 01:16:34;;;;;;;0.10;0.10;;;;;;;;;;4944730;28;20212;-71
2022/04/02 01:19:03;;;;;;;0.10;0.10;;;;;;;;;;4944584;28;20203;-71
2022/04/02 01:21:32;;;;;;;0.00;0.00;;;;;;;;;;4940735;28;20257;-71
2022/04/02 01:24:01;;;;;;;0.00;0.00;;;;;;;;;;4950098;28;20203;-71
2022/04/02 01:26:29;;;;;;;0.00;0.00;;;;;;;;;;4946101;28;20207;-71
2022/04/02 01:28:57;;;;;;;0.10;0.10;;;;;;;;;;4946188;28;20572;-70
2022/04/02 01:31:25;;;;;;;0.00;0.00;;;;;;;;;;4940645;28;20210;-71
2022/04/02 01:33:53;;;;;;;0.67;0.60;;;;;;;;;;4946235;28;20222;-70
2022/04/02 01:36:21;;;;;;;0.00;0.00;;;;;;;;;;4946081;28;20218;-72
2022/04/02 01:38:49;;;;;;;0.00;0.00;;;;;;;;;;4937208;29;20208;-71
2022/04/02 01:41:18;;;;;;;1.60;0.77;;;;;;;;;;4939031;28;20630;-69
2022/04/02 01:43:46;;;;;;;0.10;0.10;;;;;;;;;;4942208;28;20215;-70
2022/04/02 01:46:14;;;;;;;0.10;0.10;;;;;;;;;;4935450;28;20215;-69
2022/04/02 01:48:42;;;;;;;0.10;0.03;;;;;;;;;;4936442;28;20210;-70
2022/04/02 01:51:09;;;;;;;0.10;0.10;;;;;;;;;;4937902;28;20238;-72
2022/04/02 01:53:37;;;;;;;0.53;0.53;;;;;;;;;;4943301;28;20207;-71
2022/04/02 01:56:04;;;;;;;0.40;0.40;;;;;;;;;;4937260;28;20199;-70
2022/04/02 01:58:33;;;;;;;0.13;0.13;;;;;;;;;;4944206;28;20574;-71
2022/04/02 02:01:00;;;;;;;0.00;0.00;;;;;;;;;;4936018;28;20208;-71
2022/04/02 02:03:27;;;;;;;0.00;0.00;;;;;;;;;;4944229;28;20200;-71
2022/04/02 02:05:55;;;;;;;0.63;0.63;;;;;;;;;;4943765;28;20242;-71
2022/04/02 02:08:23;;;;;;;0.00;0.00;;;;;;;;;;4936236;29;20204;-70
2022/04/02 02:10:50;;;;;;;0.00;0.00;;;;;;;;;;4937686;28;20266;-71
2022/04/02 02:13:18;;;;;;;0.00;0.00;;;;;;;;;;4953694;28;20318;-71
2022/04/02 02:15:47;;;;;;;0.27;0.13;;;;;;;;;;4940140;28;20293;-71
2022/04/02 02:18:14;;;;;;;0.00;0.00;;;;;;;;;;4943802;28;20203;-70
2022/04/02 02:20:42;;;;;;;0.00;0.00;;;;;;;;;;4940494;28;20580;-70
2022/04/02 02:23:09;;;;;;;0.07;0.07;;;;;;;;;;4950862;28;20207;-70
2022/04/02 02:25:37;;;;;;;0.10;0.10;;;;;;;;;;4965119;28;20204;-70
2022/04/02 02:28:04;;;;;;;0.07;0.07;;;;;;;;;;4941196;28;20195;-70
2022/04/02 02:30:32;;;;;;;0.10;0.10;;;;;;;;;;4941265;28;20649;-70
2022/04/02 02:35:51;;;;;;;0.30;0.30;;;;;;;;;;4943628;28;20660;-71
2022/04/02 02:38:20;;;;;;;0.10;0.10;;;;;;;;;;4935098;28;20579;-70
2022/04/02 02:40:48;;;;;;;1.23;1.20;;;;;;;;;;4944622;28;20235;-73
2022/04/02 02:43:15;;;;;;;0.00;0.00;;;;;;;;;;4946820;28;20553;-71
2022/04/02 02:45:43;;;;;;;0.00;0.00;;;;;;;;;;4938738;28;20219;-73
2022/04/02 02:48:12;;;;;;;0.00;0.00;;;;;;;;;;4935710;28;20270;-71
2022/04/02 02:50:39;;;;;;;0.20;0.17;;;;;;;;;;4935125;29;20310;-72
2022/04/02 02:53:07;;;;;;;0.10;0.10;;;;;;;;;;4946250;28;20719;-72
2022/04/02 02:55:34;;;;;;;0.30;0.30;;;;;;;;;;4946038;28;20818;-69
2022/04/02 02:58:01;;;;;;;0.10;0.10;;;;;;;;;;4935524;28;20207;-71
2022/04/02 03:00:29;;;;;;;0.10;0.10;;;;;;;;;;4935355;29;20200;-70
2022/04/02 03:02:56;;;;;;;0.40;0.40;;;;;;;;;;4935454;29;20246;-71
2022/04/02 03:05:25;;;;;;;0.10;0.10;;;;;;;;;;4937538;28;20203;-72
2022/04/02 03:07:53;;;;;;;0.00;0.00;;;;;;;;;;4934479;28;20575;-71
2022/04/02 03:10:22;;;;;;;4.00;0.40;;;;;;;;;;4944170;29;20321;-71
2022/04/02 03:12:50;;;;;;;0.00;0.00;;;;;;;;;;4945144;29;20298;-71
2022/04/02 03:15:18;;;;;;;0.33;0.33;;;;;;;;;;4944803;28;20660;-71
2022/04/02 03:17:46;;;;;;;0.00;0.00;;;;;;;;;;4934056;28;21020;-70
2022/04/02 03:20:14;;;;;;;0.00;0.00;;;;;;;;;;4940422;28;20211;-71
2022/04/02 03:22:45;;;;;;;0.00;0.00;;;;;;;;;;4937008;28;20200;-71
2022/04/02 03:25:14;;;;;;;0.00;0.00;;;;;;;;;;4935383;28;20686;-70
2022/04/02 03:27:43;;;;;;;0.00;0.00;;;;;;;;;;4948042;28;20699;-71
2022/04/02 03:30:11;;;;;;;0.00;0.00;;;;;;;;;;4936577;28;20227;-71
2022/04/02 03:32:39;;;;;;;0.00;0.00;;;;;;;;;;4942153;28;20202;-71
2022/04/02 03:35:07;;;;;;;0.00;0.00;;;;;;;;;;4945824;28;20211;-71
2022/04/02 03:37:36;;;;;;;0.00;0.00;;;;;;;;;;4938234;28;20196;-71
2022/04/02 03:40:07;;;;;;;0.10;0.10;;;;;;;;;;4933247;28;20334;-71
2022/04/02 03:42:35;;;;;;;0.00;0.00;;;;;;;;;;4935797;28;20294;-71
2022/04/02 03:45:02;;;;;;;0.07;0.07;;;;;;;;;;4942072;28;20659;-70
2022/04/02 03:47:30;;;;;;;0.00;0.00;;;;;;;;;;4944517;28;20199;-74
2022/04/02 03:49:57;;;;;;;0.10;0.10;;;;;;;;;;4937010;28;20289;-71
2022/04/02 03:52:25;;;;;;;0.20;0.20;;;;;;;;;;4936490;28;20680;-72
2022/04/02 03:54:53;;;;;;;0.00;0.00;;;;;;;;;;4939679;28;20203;-71
2022/04/02 03:57:22;;;;;;;0.00;0.00;;;;;;;;;;4950048;28;20219;-71
2022/04/02 03:59:49;;;;;;;0.10;0.10;;;;;;;;;;4934620;28;20580;-71
2022/04/02 04:02:17;;;;;;;0.00;0.00;;;;;;;;;;4935025;28;20709;-71
2022/04/02 04:04:45;;;;;;;0.00;0.00;;;;;;;;;;4934607;28;20207;-71
2022/04/02 04:07:12;;;;;;;0.03;0.03;;;;;;;;;;4933308;28;20287;-71
2022/04/02 04:09:40;;;;;;;0.00;0.00;;;;;;;;;;4936875;29;20279;-71
2022/04/02 04:12:08;;;;;;;0.00;0.00;;;;;;;;;;4936136;28;20231;-70
2022/04/02 04:14:37;;;;;;;0.10;0.10;;;;;;;;;;4949758;28;20214;-71
2022/04/02 04:17:05;;;;;;;0.17;0.00;;;;;;;;;;4941454;28;20298;-71
2022/04/02 04:19:33;;;;;;;0.00;0.00;;;;;;;;;;4952835;28;20234;-71
2022/04/02 04:22:00;;;;;;;0.53;0.53;;;;;;;;;;4952785;28;20294;-71
2022/04/02 04:24:30;;;;;;;2.03;1.50;;;;;;;;;;4933692;28;20207;-70
2022/04/02 04:26:58;;;;;;;0.00;0.00;;;;;;;;;;4945799;29;20302;-71
2022/04/02 04:29:25;;;;;;;0.73;0.73;;;;;;;;;;4949781;28;20631;-71
2022/04/02 04:31:54;;;;;;;0.10;0.10;;;;;;;;;;4936028;28;20642;-71
2022/04/02 04:34:22;;;;;;;0.03;0.03;;;;;;;;;;4945004;28;20238;-71
2022/04/02 04:36:49;;;;;;;0.10;0.10;;;;;;;;;;4971993;28;20205;-71
2022/04/02 04:39:17;;;;;;;0.13;0.10;;;;;;;;;;4967282;28;20210;-71
2022/04/02 04:41:44;;;;;;;0.10;0.10;;;;;;;;;;4965624;28;20664;-71
2022/04/02 04:44:11;;;;;;;0.00;0.00;;;;;;;;;;4970404;28;20202;-69
2022/04/02 04:46:39;;;;;;;0.20;0.20;;;;;;;;;;4971903;28;20191;-70
2022/04/02 04:49:10;;;;;;;0.10;0.10;;;;;;;;;;4960526;28;20630;-71
2022/04/02 04:51:38;;;;;;;0.00;0.00;;;;;;;;;;4957800;28;20317;-69
2022/04/02 04:54:05;;;;;;;0.30;0.30;;;;;;;;;;4970137;28;20210;-69
2022/04/02 04:56:33;;;;;;;0.63;0.17;;;;;;;;;;4970807;28;20202;-71
2022/04/02 04:59:00;;;;;;;0.10;0.10;;;;;;;;;;4970925;28;20658;-70
2022/04/02 05:01:28;;;;;;;0.00;0.00;;;;;;;;;;4970111;28;20206;-70
2022/04/02 05:03:55;;;;;;;0.00;0.00;;;;;;;;;;4969959;28;20237;-73
2022/04/02 05:06:24;;;;;;;0.00;0.00;;;;;;;;;;4971364;28;20234;-70
2022/04/02 05:08:51;;;;;;;0.00;0.00;;;;;;;;;;4970795;28;20211;-71
2022/04/02 05:11:18;;;;;;;0.17;0.13;;;;;;;;;;4970555;28;20242;-71
2022/04/02 05:13:46;;;;;;;0.00;0.00;;;;;;;;;;4969008;28;20206;-71
2022/04/02 05:16:14;;;;;;;0.00;0.00;;;;;;;;;;4972225;28;20572;-71
2022/04/02 05:18:41;;;;;;;0.00;0.00;;;;;;;;;;4966381;28;20216;-70
2022/04/02 05:21:09;;;;;;;0.10;0.10;;;;;;;;;;4970477;28;20297;-71
2022/04/02 05:23:38;;;;;;;0.00;0.00;;;;;;;;;;4970447;28;20213;-71
2022/04/02 05:26:05;;;;;;;0.00;0.00;;;;;;;;;;4971418;28;20226;-71
2022/04/02 05:28:32;;;;;;;0.00;0.00;;;;;;;;;;4969133;28;20213;-70
2022/04/02 05:31:00;;;;;;;0.00;0.00;;;;;;;;;;4969942;28;20226;-71
2022/04/02 05:33:27;;;;;;;0.27;0.27;;;;;;;;;;4970768;28;20214;-70
2022/04/02 05:35:55;;;;;;;0.00;0.00;;;;;;;;;;4971016;28;20213;-71
2022/04/02 05:38:22;;;;;;;0.00;0.00;;;;;;;;;;4971831;28;20607;-71
2022/04/02 05:40:51;;;;;;;1.23;1.13;;;;;;;;;;4973025;28;20210;-71
2022/04/02 05:43:18;;;;;;;3.50;1.93;;;;;;;;;;4968358;28;20202;-71
2022/04/02 05:45:46;;;;;;;0.00;0.00;;;;;;;;;;4974525;28;20282;-71
2022/04/02 05:48:14;;;;;;;0.10;0.10;;;;;;;;;;4971731;28;20233;-70
2022/04/02 05:50:42;;;;;;;0.00;0.00;;;;;;;;;;4973125;28;20234;-70
2022/04/02 05:53:09;;;;;;;0.00;0.00;;;;;;;;;;4973761;28;20202;-71
2022/04/02 05:55:36;;;;;;;0.10;0.10;;;;;;;;;;4973702;28;20205;-70
2022/04/02 05:58:05;;;;;;;0.00;0.00;;;;;;;;;;4967759;28;20206;-69
2022/04/02 06:00:32;;;;;;;0.87;0.33;;;;;;;;;;4970005;28;20673;-69
2022/04/02 06:03:00;;;;;;;0.40;0.40;;;;;;;;;;4965988;28;20209;-70
2022/04/02 06:05:28;;;;;;;0.00;0.00;;;;;;;;;;4975022;28;20608;-70
2022/04/02 06:07:55;;;;;;;0.00;0.00;;;;;;;;;;4969469;28;20253;-70
2022/04/02 06:10:23;;;;;;;0.00;0.00;;;;;;;;;;4969871;28;20206;-71
2022/04/02 06:12:51;;;;;;;0.20;0.20;;;;;;;;;;4972171;28;20723;-70
2022/04/02 06:15:21;;;;;;;0.20;0.20;;;;;;;;;;4974570;28;20205;-70
2022/04/02 06:17:49;;;;;;;0.00;0.00;;;;;;;;;;4972984;28;20206;-70
2022/04/02 06:20:17;;;;;;;0.20;0.10;;;;;;;;;;4974219;28;20289;-70
2022/04/02 06:22:44;;;;;;;0.20;0.20;;;;;;;;;;4970238;28;20213;-71
2022/04/02 06:25:11;;;;;;;0.10;0.10;;;;;;;;;;4973560;28;20213;-70
2022/04/02 06:27:43;;;;;;;0.00;0.00;;;;;;;;;;4971277;28;20201;-70
2022/04/02 06:30:11;;;;;;;0.00;0.00;;;;;;;;;;4956339;28;20235;-70
2022/04/02 06:32:40;;;;;;;0.10;0.10;;;;;;;;;;4949691;28;20239;-69
2022/04/02 06:35:07;;;;;;;0.00;0.00;;;;;;;;;;4953906;28;20228;-70
2022/04/02 06:37:35;;;;;;;1.00;1.00;;;;;;;;;;4950901;28;20195;-70
2022/04/02 06:40:04;;;;;;;0.33;0.33;;;;;;;;;;4953321;28;20672;-71
2022/04/02 06:42:31;;;;;;;0.00;0.00;;;;;;;;;;4953559;28;20301;-71
2022/04/02 06:44:58;;;;;;;0.00;0.00;;;;;;;;;;4954435;28;20210;-70
2022/04/02 06:47:27;;;;;;;0.07;0.07;;;;;;;;;;4942658;28;20211;-71
2022/04/02 06:49:56;;;;;;;1.17;0.60;;;;;;;;;;4950068;28;20203;-71
2022/04/02 06:52:23;;;;;;;0.10;0.10;;;;;;;;;;4953289;28;20223;-71
2022/04/02 06:54:51;;;;;;;0.00;0.00;;;;;;;;;;4952448;28;20207;-70
2022/04/02 06:57:19;;;;;;;0.43;0.37;;;;;;;;;;4952993;28;20213;-71
2022/04/02 06:59:46;;;;;;;1.10;0.80;;;;;;;;;;4953527;28;20669;-72
2022/04/02 07:02:14;;;;;;;0.00;0.00;;;;;;;;;;4951540;28;20199;-70
2022/04/02 07:04:42;;;;;;;0.40;0.40;;;;;;;;;;4949192;28;20262;-71
2022/04/02 07:07:11;;;;;;;0.30;0.20;;;;;;;;;;4941673;28;20270;-71
2022/04/02 07:09:38;;;;;;;0.60;0.20;;;;;;;;;;4952110;28;20187;-70
2022/04/02 07:12:07;;;;;;;0.63;0.10;;;;;;;;;;4948012;28;20234;-70
2022/04/02 07:14:34;;;;;;;0.20;0.20;;;;;;;;;;4947211;28;20209;-71
2022/04/02 07:17:02;;;;;;;3.70;0.93;;;;;;;;;;4953056;28;20207;-71
2022/04/02 07:19:29;;;;;;;0.30;0.30;;;;;;;;;;4940489;28;20195;-71
2022/04/02 07:21:57;;;;;;;0.37;0.37;;;;;;;;;;4952655;29;20572;-68
2022/04/02 07:24:26;;;;;;;0.40;0.40;;;;;;;;;;4956759;28;20682;-71
2022/04/02 07:26:53;;;;;;;0.27;0.20;;;;;;;;;;4950905;28;20203;-71
2022/04/02 07:29:20;;;;;;;0.10;0.10;;;;;;;;;;4949127;28;20199;-70
2022/04/02 07:31:48;;;;;;;0.27;0.27;;;;;;;;;;4948308;28;20231;-70
2022/04/02 07:34:15;;;;;;;0.30;0.30;;;;;;;;;;4951124;28;20692;-71
2022/04/02 07:36:48;;;;;;;0.50;0.40;;;;;;;;;;4943810;28;20211;-71
2022/04/02 07:39:16;;;;;;;0.77;0.77;;;;;;;;;;4950551;28;20199;-71
2022/04/02 07:41:48;;;;;;;0.53;0.53;;;;;;;;;;4953604;28;20203;-71
2022/04/02 07:44:22;;;;;;;0.63;0.30;;;;;;;;;;4951908;28;20234;-72
2022/04/02 07:46:49;;;;;;;0.30;0.30;;;;;;;;;;4953687;28;20222;-71
2022/04/02 07:49:21;;;;;;;0.40;0.40;;;;;;;;;;4951891;28;20255;-71
2022/04/02 07:51:52;;;;;;;0.60;0.50;;;;;;;;;;4943932;28;20285;-71
2022/04/02 07:54:22;;;;;;;0.30;0.30;;;;;;;;;;4950051;28;20206;-71
2022/04/02 07:56:52;;;;;;;3.43;1.37;;;;;;;;;;4955442;28;20207;-72
2022/04/02 07:59:24;;;;;;;0.30;0.30;;;;;;;;;;4951988;28;20217;-71
2022/04/02 08:01:52;;;;;;;2.20;0.57;;;;;;;;;;4947008;28;20214;-71
2022/04/02 08:04:22;;;;;;;0.83;0.57;;;;;;;;;;4951669;28;20199;-70
2022/04/02 08:06:50;;;;;;;1.07;0.60;;;;;;;;;;4952537;28;20281;-71
2022/04/02 08:09:19;;;;;;;0.50;0.43;;;;;;;;;;4952433;28;20676;-71
2022/04/02 08:11:48;;;;;;;0.10;0.10;;;;;;;;;;4934049;28;20227;-71
2022/04/02 08:14:20;;;;;;;0.77;0.73;;;;;;;;;;4947607;28;20213;-70
2022/04/02 08:16:49;;;;;;;0.10;0.00;;;;;;;;;;4946138;29;20539;-71
2022/04/02 08:19:19;;;;;;;0.20;0.20;;;;;;;;;;4952097;28;20578;-71
2022/04/02 08:21:47;;;;;;;0.80;0.80;;;;;;;;;;4939554;28;20209;-71
2022/04/02 08:24:14;;;;;;;0.37;0.37;;;;;;;;;;4945034;28;20207;-71
2022/04/02 08:26:46;;;;;;;0.53;0.53;;;;;;;;;;4952249;28;20584;-72
2022/04/02 08:29:27;;;;;;;0.53;0.53;;;;;;;;;;4951189;28;20602;-71
2022/04/02 08:31:58;;;;;;;0.83;0.40;;;;;;;;;;4952860;28;20641;-71
2022/04/02 08:34:34;;;;;;;0.10;0.10;;;;;;;;;;4940330;28;20226;-70
2022/04/02 08:37:04;;;;;;;1.00;1.00;;;;;;;;;;4947569;28;20211;-72
2022/04/02 08:39:37;;;;;;;0.77;0.73;;;;;;;;;;4951925;28;20207;-72
2022/04/02 08:42:25;;;;;;;0.70;0.30;;;;;;;;;;4952802;28;20222;-73
2022/04/02 08:45:03;;;;;;;0.93;0.37;;;;;;;;;;4922802;28;20214;-72
2022/04/02 08:47:58;;;;;;;0.60;0.60;;;;;;;;;;4947841;28;20294;-72
2022/04/02 08:50:29;;;;;;;0.30;0.30;;;;;;;;;;4912840;28;20230;-72
2022/04/02 08:52:57;;;;;;;2.53;0.73;;;;;;;;;;4951900;28;20238;-71
2022/04/02 08:55:34;;;;;;;0.97;0.40;;;;;;;;;;4950893;28;20291;-71
2022/04/02 08:58:09;;;;;;;0.63;0.50;;;;;;;;;;4949869;28;20620;-71
2022/04/02 09:00:40;;;;;;;8.63;1.70;;;;;;;;;;4953163;29;20206;-72
2022/04/02 09:03:27;;;;;;;0.60;0.37;;;;;;;;;;4952351;28;20297;-72
2022/04/02 09:05:59;;;;;;;3.10;1.00;;;;;;;;;;4951742;29;20218;-72
2022/04/02 09:08:40;;;;;;;0.40;0.40;;;;;;;;;;4950556;28;20728;-73
2022/04/02 09:11:24;;;;;;;0.50;0.50;;;;;;;;;;4948460;28;20203;-73
2022/04/02 09:14:07;;;;;;;1.40;0.90;;;;;;;;;;4954547;28;20744;-72
2022/04/02 09:16:37;;;;;;;0.63;0.57;;;;;;;;;;4935345;28;20256;-72
2022/04/02 09:19:16;;;;;;;0.83;0.53;;;;;;;;;;4946173;29;20211;-73
2022/04/02 09:21:51;;;;;;;0.30;0.30;;;;;;;;;;4956402;28;20234;-71
2022/04/02 09:24:25;;;;;;;0.13;0.13;;;;;;;;;;4954722;28;20203;-72
2022/04/02 09:27:13;;;;;;;0.20;0.17;;;;;;;;;;4955402;28;20218;-72
2022/04/02 09:29:44;;;;;;;0.83;0.60;;;;;;;;;;4956339;29;20369;-72
2022/04/02 09:32:26;;;;;;;0.37;0.30;;;;;;;;;;4944421;28;20242;-70
2022/04/02 09:35:05;;;;;;;0.40;0.40;;;;;;;;;;4951567;28;20575;-69
2022/04/02 09:37:51;;;;;;;0.87;0.87;;;;;;;;;;4956550;28;20210;-71
2022/04/02 09:40:19;;;;;;;6.13;2.10;;;;;;;;;;4950973;28;20329;-70
2022/04/02 09:42:48;;;;;;;1.07;0.60;;;;;;;;;;4953335;29;20203;-69
2022/04/02 09:45:16;;;;;;;0.53;0.53;;;;;;;;;;4955867;28;20203;-70
2022/04/02 09:47:59;;;;;;;0.33;0.33;;;;;;;;;;4955474;28;20203;-70
2022/04/02 09:50:29;;;;;;;2.73;1.33;;;;;;;;;;4951421;29;20211;-70
2022/04/02 09:52:58;;;;;;;1.80;0.30;;;;;;;;;;4944466;28;20636;-70
2022/04/02 09:55:27;;;;;;;0.20;0.20;;;;;;;;;;4955560;28;20290;-72
2022/04/02 09:58:06;;;;;;;0.77;0.73;;;;;;;;;;4955278;28;20203;-69
2022/04/02 10:00:39;;;;;;;0.27;0.27;;;;;;;;;;4953819;28;20780;-69
2022/04/02 10:03:08;;;;;;;0.20;0.20;;;;;;;;;;4954778;29;20597;-71
2022/04/02 10:05:45;;;;;;;0.67;0.23;;;;;;;;;;4954935;29;20199;-71
2022/04/02 10:08:31;;;;;;;0.27;0.27;;;;;;;;;;4955180;28;20261;-71
2022/04/02 10:11:02;;;;;;;0.43;0.30;;;;;;;;;;4953633;28;20211;-71
2022/04/02 10:13:32;;;;;;;0.47;0.47;;;;;;;;;;4942218;28;20289;-72
2022/04/02 10:16:01;;;;;;;0.47;0.47;;;;;;;;;;4954642;28;20672;-72
2022/04/02 10:18:28;;;;;;;1.17;0.30;;;;;;;;;;4955327;28;20209;-71
2022/04/02 10:20:59;;;;;;;0.27;0.20;;;;;;;;;;4954207;28;20203;-72
2022/04/02 10:23:27;;;;;;;0.50;0.50;;;;;;;;;;4953762;28;20199;-72
2022/04/02 10:26:08;;;;;;;0.47;0.47;;;;;;;;;;4954728;28;20215;-72
2022/04/02 10:28:42;;;;;;;0.37;0.10;;;;;;;;;;4954233;29;20213;-72
2022/04/02 10:31:13;;;;;;;0.30;0.10;;;;;;;;;;4946245;28;20211;-73
2022/04/02 10:33:44;;;;;;;0.90;0.90;;;;;;;;;;4953870;28;20241;-73
2022/04/02 10:36:14;;;;;;;0.20;0.20;;;;;;;;;;4955453;28;20207;-72
2022/04/02 10:38:42;;;;;;;1.03;0.50;;;;;;;;;;4953486;28;20691;-72
2022/04/02 10:41:10;;;;;;;0.43;0.30;;;;;;;;;;4952950;28;20207;-72
2022/04/02 10:43:43;;;;;;;0.17;0.17;;;;;;;;;;4954015;28;20223;-73
2022/04/02 10:46:10;;;;;;;0.77;0.40;;;;;;;;;;4954815;29;20206;-72
2022/04/02 10:48:43;;;;;;;0.50;0.50;;;;;;;;;;4955673;29;20203;-72
2022/04/02 10:51:13;;;;;;;0.63;0.50;;;;;;;;;;4947917;28;20204;-72
2022/04/02 10:53:44;;;;;;;0.30;0.30;;;;;;;;;;4952813;28;20329;-71
2022/04/02 10:56:16;;;;;;;0.20;0.20;;;;;;;;;;4955063;28;20213;-71
2022/04/02 10:58:48;;;;;;;0.67;0.33;;;;;;;;;;4955571;29;20552;-71
2022/04/02 11:01:19;;;;;;;0.30;0.30;;;;;;;;;;4953578;29;20215;-72
2022/04/02 11:03:48;;;;;;;0.40;0.40;;;;;;;;;;4945233;28;20211;-72
2022/04/02 11:06:36;;;;;;;0.13;0.13;;;;;;;;;;4935016;28;20246;-71
2022/04/02 11:09:25;;;;;;;0.50;0.50;;;;;;;;;;4951354;28;20213;-71
2022/04/02 11:11:53;;;;;;;0.83;0.33;;;;;;;;;;4952694;29;20585;-71
2022/04/02 11:14:22;;;;;;;0.73;0.73;;;;;;;;;;4954639;29;20199;-72
2022/04/02 11:16:49;;;;;;;0.83;0.67;;;;;;;;;;4953489;28;20199;-72
2022/04/02 11:22:03;;;;;;;0.63;0.60;;;;;;;;;;4952015;29;20342;-73
2022/04/02 11:24:38;;;;;;;1.20;0.57;;;;;;;;;;4954587;28;20211;-73
2022/04/02 11:27:06;;;;;;;0.10;0.00;;;;;;;;;;4954401;28;20208;-72
2022/04/02 11:29:35;;;;;;;0.50;0.50;;;;;;;;;;4953186;28;20198;-73
2022/04/02 11:32:03;;;;;;;0.00;0.00;;;;;;;;;;4949110;28;20294;-73
2022/04/02 11:34:31;;;;;;;1.83;0.70;;;;;;;;;;4938031;28;20226;-73
2022/04/02 11:37:03;;;;;;;0.37;0.37;;;;;;;;;;4950418;28;20206;-72
2022/04/02 11:39:36;;;;;;;0.20;0.20;;;;;;;;;;4954076;28;20203;-72
2022/04/02 11:42:04;;;;;;;0.10;0.10;;;;;;;;;;4953191;28;20210;-72
2022/04/02 11:44:36;;;;;;;0.30;0.30;;;;;;;;;;4950843;28;20198;-72
2022/04/02 11:47:05;;;;;;;0.20;0.20;;;;;;;;;;4948338;28;20664;-71
2022/04/02 11:49:33;;;;;;;0.00;0.00;;;;;;;;;;4952657;28;20305;-71
2022/04/02 11:52:04;;;;;;;0.40;0.40;;;;;;;;;;4938971;28;20209;-71
2022/04/02 11:54:39;;;;;;;0.50;0.50;;;;;;;;;;4953499;28;20199;-72
2022/04/02 11:57:08;;;;;;;0.30;0.30;;;;;;;;;;4936014;28;20703;-72
2022/04/02 11:59:36;;;;;;;0.13;0.13;;;;;;;;;;4934191;29;20693;-71
2022/04/02 12:02:04;;;;;;;0.43;0.43;;;;;;;;;;4949478;28;20251;-72
2022/04/02 12:04:35;;;;;;;0.30;0.20;;;;;;;;;;4948324;28;20199;-71
2022/04/02 12:07:08;;;;;;;0.53;0.50;;;;;;;;;;4953499;28;20235;-71
2022/04/02 12:09:50;;;;;;;0.43;0.43;;;;;;;;;;4939059;28;20219;-70
2022/04/02 12:12:23;;;;;;;0.20;0.20;;;;;;;;;;4934248;29;20254;-72
2022/04/02 12:14:58;;;;;;;0.37;0.30;;;;;;;;;;4934355;29;20204;-72
2022/04/02 12:17:32;;;;;;;0.50;0.50;;;;;;;;;;4937053;28;20645;-73
2022/04/02 12:20:00;;;;;;;0.20;0.20;;;;;;;;;;4944213;28;20203;-72
2022/04/02 12:22:31;;;;;;;0.53;0.30;;;;;;;;;;4934487;29;20207;-71
2022/04/02 12:25:00;;;;;;;0.20;0.20;;;;;;;;;;4934572;29;20561;-71
2022/04/02 12:27:28;;;;;;;0.43;0.00;;;;;;;;;;4933865;28;20255;-70
2022/04/02 12:29:56;;;;;;;0.17;0.17;;;;;;;;;;4946369;28;20310;-71
2022/04/02 12:32:32;;;;;;;0.10;0.10;;;;;;;;;;4953095;28;20656;-70
2022/04/02 12:35:00;;;;;;;0.20;0.20;;;;;;;;;;4945053;28;20241;-72
2022/04/02 12:37:29;;;;;;;0.30;0.20;;;;;;;;;;4953506;28;20207;-71
2022/04/02 12:39:56;;;;;;;0.90;0.67;;;;;;;;;;4948139;28;20199;-71
2022/04/02 12:42:38;;;;;;;0.30;0.20;;;;;;;;;;4951072;28;20290;-71
2022/04/02 12:45:08;;;;;;;0.00;0.00;;;;;;;;;;4948838;28;20207;-71
2022/04/02 12:47:37;;;;;;;0.60;0.60;;;;;;;;;;4951922;28;20297;-71
2022/04/02 12:50:12;;;;;;;0.13;0.13;;;;;;;;;;4953701;29;20728;-71
2022/04/02 12:52:46;;;;;;;0.23;0.23;;;;;;;;;;4957087;28;20230;-71
2022/04/02 12:55:21;;;;;;;0.53;0.33;;;;;;;;;;4956798;28;20293;-72
2022/04/02 12:57:58;;;;;;;0.10;0.03;;;;;;;;;;4955230;28;20198;-72
2022/04/02 13:00:28;;;;;;;2.27;0.57;;;;;;;;;;4949290;28;20233;-70
2022/04/02 13:02:57;;;;;;;0.10;0.10;;;;;;;;;;4945962;28;20222;-73
2022/04/02 13:05:26;;;;;;;0.20;0.20;;;;;;;;;;4947011;28;20640;-72
2022/04/02 13:08:02;;;;;;;0.30;0.30;;;;;;;;;;4954792;28;20777;-72
2022/04/02 13:10:29;;;;;;;0.57;0.10;;;;;;;;;;4962727;28;20230;-72
2022/04/02 13:12:58;;;;;;;0.10;0.10;;;;;;;;;;4963352;28;20241;-71
2022/04/02 13:15:28;;;;;;;0.43;0.43;;;;;;;;;;4959775;28;20237;-72
2022/04/02 13:20:46;;;;;;;0.10;0.10;;;;;;;;;;4949803;28;20228;-72
2022/04/02 13:23:32;;;;;;;0.20;0.20;;;;;;;;;;4970632;28;20234;-71
2022/04/02 13:26:06;;;;;;;0.43;0.43;;;;;;;;;;4975284;28;20206;-71
2022/04/02 13:28:41;;;;;;;0.40;0.40;;;;;;;;;;4974085;28;20731;-72
2022/04/02 13:31:08;;;;;;;0.00;0.00;;;;;;;;;;4971802;28;20210;-71
2022/04/02 13:33:48;;;;;;;0.00;0.00;;;;;;;;;;4970100;28;20233;-71
2022/04/02 13:36:22;;;;;;;0.47;0.47;;;;;;;;;;4956058;28;20223;-72
2022/04/02 13:38:55;;;;;;;0.30;0.30;;;;;;;;;;4963426;28;20233;-72
2022/04/02 13:41:27;;;;;;;0.10;0.10;;;;;;;;;;4971260;28;20246;-71
2022/04/02 13:43:55;;;;;;;0.10;0.10;;;;;;;;;;4974921;28;20291;-71
2022/04/02 13:46:25;;;;;;;0.20;0.20;;;;;;;;;;4957923;28;20199;-70
2022/04/02 13:48:57;;;;;;;0.37;0.37;;;;;;;;;;4974397;28;20667;-70
2022/04/02 13:51:32;;;;;;;0.47;0.20;;;;;;;;;;4975054;28;20630;-71
2022/04/02 13:54:05;;;;;;;0.17;0.17;;;;;;;;;;4974340;28;20777;-71
2022/04/02 13:56:35;;;;;;;4.63;0.90;;;;;;;;;;4974293;28;20203;-71
2022/04/02 13:59:06;;;;;;;0.17;0.17;;;;;;;;;;4972536;28;20195;-71
2022/04/02 14:01:37;;;;;;;0.63;0.63;;;;;;;;;;4973640;28;20295;-71
2022/04/02 14:04:10;;;;;;;1.43;0.57;;;;;;;;;;4962936;28;20695;-71
2022/04/02 14:06:40;;;;;;;0.70;0.70;;;;;;;;;;4955271;29;20239;-70
2022/04/02 14:09:10;;;;;;;0.37;0.13;;;;;;;;;;4955514;28;20199;-70
2022/04/02 14:11:38;;;;;;;0.10;0.10;;;;;;;;;;4961260;28;20194;-70
2022/04/02 14:14:21;;;;;;;0.53;0.53;;;;;;;;;;4974453;28;20685;-70
2022/04/02 14:17:03;;;;;;;0.00;0.00;;;;;;;;;;4974953;28;20209;-70
2022/04/02 14:19:36;;;;;;;0.33;0.33;;;;;;;;;;4961251;28;20214;-71
2022/04/02 14:22:07;;;;;;;0.00;0.00;;;;;;;;;;4963214;28;20206;-71
2022/04/02 14:24:41;;;;;;;0.10;0.10;;;;;;;;;;4957601;28;20214;-71
2022/04/02 14:27:16;;;;;;;0.60;0.40;;;;;;;;;;4955120;28;20195;-70
2022/04/02 14:30:02;;;;;;;0.20;0.20;;;;;;;;;;4971969;28;20198;-71
2022/04/02 14:32:47;;;;;;;0.20;0.20;;;;;;;;;;4961133;28;20217;-70
2022/04/02 14:35:29;;;;;;;0.27;0.27;;;;;;;;;;4972486;28;20217;-70
2022/04/02 14:38:15;;;;;;;0.10;0.10;;;;;;;;;;4962994;28;20207;-71
2022/04/02 14:40:45;;;;;;;0.10;0.10;;;;;;;;;;4979660;28;20212;-71
2022/04/02 14:43:43;;;;;;;0.10;0.10;;;;;;;;;;4991166;28;20213;-71
2022/04/02 14:46:23;;;;;;;0.00;0.00;;;;;;;;;;4974303;28;20305;-71
2022/04/02 14:49:03;;;;;;;0.07;0.00;;;;;;;;;;4972746;28;20237;-69
2022/04/02 14:52:03;;;;;;;0.00;0.00;;;;;;;;;;4972083;28;20212;-71
2022/04/02 14:54:57;;;;;;;0.37;0.37;;;;;;;;;;4974753;28;20225;-72
2022/04/02 14:57:35;;;;;;;0.70;0.47;;;;;;;;;;4975676;28;20218;-71
2022/04/02 15:00:21;;;;;;;0.23;0.17;;;;;;;;;;4972014;28;20282;-71
2022/04/02 15:03:23;;;;;;;0.00;0.00;;;;;;;;;;4973344;28;20646;-69
2022/04/02 15:06:06;;;;;;;0.83;0.83;;;;;;;;;;4954499;28;20233;-72
2022/04/02 15:08:46;;;;;;;0.00;0.00;;;;;;;;;;4953868;28;20230;-73
2022/04/02 15:11:16;;;;;;;0.30;0.30;;;;;;;;;;4976902;28;20194;-73